LPHR Airport Information

Runway Information
Runway 10 Length 5233 ft width 148 ft
Elevation 81 ft Threshold 0 ft Heading 90
Runway 28 Length 5233 ft Width 148 ft
Elevation 117 ft Threshold 0 ft Heading 270
Airport Frequencies
Type APP Name APP Frequency 119.7 MHZ
Type TWR Name TWR Frequency 118 MHZ
Airport Navaids
Type NDB Name Horta Frequency 380 KHZ
Type NDB Name Horta Frequency 360 KHZ
Type VORTAC Name Horta Frequency 112700 KHZ
Airport Weather Information & NOTAM
ADDS - METARS form results

(1136 UTC 17 July 2018)
 
METAR text: LPHR 171130Z 20009KT 9999 FEW020 SCT040 22/15 Q1029
Conditions at: LPHR (HORTA/FAIAL ISLA, PT) observed 1130 UTC 17 July 2018
Temperature: 22.0°C (72°F)
Dewpoint: 15.0°C (59°F) [RH = 65%]
Pressure (altimeter): 30.38 inches Hg (1029.0 mb)
Winds: from the SSW (200 degrees) at 10 MPH (9 knots; 4.7 m/s)
Visibility: 6 or more miles (10+ km)
Ceiling: at least 12,000 feet AGL
Clouds: few clouds at 2000 feet AGL
scattered clouds at 4000 feet AGL
Weather: no significant weather observed at this time

METAR text: LPHR 171100Z 19006KT 140V220 9999 FEW020 22/15 Q1029
Conditions at: LPHR (HORTA/FAIAL ISLA, PT) observed 1100 UTC 17 July 2018
Temperature: 22.0°C (72°F)
Dewpoint: 15.0°C (59°F) [RH = 65%]
Pressure (altimeter): 30.38 inches Hg (1029.0 mb)
Winds: from the S (190 degrees) at 7 MPH (6 knots; 3.1 m/s)
Visibility: 6 or more miles (10+ km)
Ceiling: at least 12,000 feet AGL
Clouds: few clouds at 2000 feet AGL
Weather: no significant weather observed at this time